• Join FlightAware (Why Join?)
  • Login
  • US Flag 
11:05PM EDT


 

Airport Tracker/Info


-or-


 

Live Flight TrackerFlight Track Log ✈ N658FE ✈ 05-May-2013 ✈ KMEM - KGEG

Flight Track Log - Related Links

Times and Time Zones

All times are in EDT time to prevent confusion due to time zone crossing. See the N658FE flight status page for this flight to view local times or setup timezone preferences in your user account.

Time Position Orientation Groundspeed Altitude Reporting Facility
EDT Latitude Longitude Course Direction KTS MPH feet Rate Location/Type
04:56PM 35.0500 -89.9833 360° North 143 165 1,100  Level KMEM
04:58PM 35.1167 -89.9833 360° North 228 262 3,500 2,760 Climbing KMEM
04:59PM 35.1833 -90.0000 348° North 262 302 7,500 3,180 Climbing KMEM
05:00PM 35.3053 -90.0161 354° North 317 365 11,900 2,820 Climbing Memphis Center
05:01PM 35.4136 -90.0233 357° North 331 381 14,900 3,060 Climbing Memphis Center
05:02PM 35.5200 -90.0306 357° North 371 427 18,100 3,180 Climbing Memphis Center
05:03PM 35.6286 -90.0506 351° North 388 447 21,300 2,700 Climbing Memphis Center
05:04PM 35.7164 -90.1269 325° Northwest 379 436 23,500 2,100 Climbing Memphis Center
05:05PM 35.8042 -90.2136 321° Northwest 379 436 25,500 1,800 Climbing Memphis Center
05:06PM 35.8772 -90.3339 307° West 404 465 27,200 1,800 Climbing Memphis Center
05:08PM 36.0031 -90.5203 310° West 442 509 30,600 1,980 Climbing Kansas City Center
05:08PM 36.0314 -90.5700 305° West 441 507 31,200 1,080 Climbing Memphis Center
05:09PM 36.1103 -90.6936 308° West 446 513 32,000 360 Climbing Memphis Center
05:10PM 36.1892 -90.8172 308° West 451 519 32,000  Level Memphis Center
05:11PM 36.2656 -90.9386 308° West 456 525 32,000  Level Memphis Center
05:12PM 36.3442 -91.0603 309° West 451 519 32,000  Level Memphis Center
05:13PM 36.4206 -91.1822 308° West 451 519 32,000  Level Memphis Center
05:14PM 36.5011 -91.2967 311° West 451 519 32,000  Level Memphis Center
05:15PM 36.5753 -91.4214 307° West 446 513 32,000  Level Memphis Center
05:17PM 36.7211 -91.6492 309° West 430 495 32,000 240 Level Kansas City Center
05:18PM 36.7967 -91.7675 309° West 432 497 32,800 900 Climbing Kansas City Center
05:19PM 36.8708 -91.8889 307° West 436 502 33,900 540 Climbing Kansas City Center
05:20PM 36.9472 -92.0103 308° West 441 507 34,000  Climbing Kansas City Center
05:21PM 37.0600 -92.1164 323° Northwest 426 490 34,000  Level Kansas City Center
05:22PM 37.1553 -92.2061 323° Northwest 424 488 34,000  Level Kansas City Center
05:24PM 37.2563 -92.3063 322° Northwest  Level FlightAware Approximate
05:25PM 37.3467 -92.3825 322° Northwest 424 488 34,000  Level Kansas City Center
05:26PM 37.4406 -92.4708 323° Northwest 421 484 34,000  Level Kansas City Center
05:27PM 37.5375 -92.5592 324° Northwest 422 486 34,000  Level Kansas City Center
05:28PM 37.6342 -92.6500 323° Northwest 425 489 34,000  Level Kansas City Center
05:29PM 37.7278 -92.7381 323° Northwest 429 494 34,000  Level Kansas City Center
05:34PM 38.2940 -93.2740 323° Northwest 34,000  Level FlightAware
05:36PM 38.4430 -93.4180 323° Northwest 34,000  Level FlightAware
05:37PM 38.5170 -93.4890 323° Northwest 34,000  Level FlightAware
05:37PM 38.5820 -93.5510 323° Northwest 34,000  Level FlightAware
05:38PM 38.6580 -93.6260 322° Northwest 34,000  Level FlightAware
05:39PM 38.7240 -93.6890 323° Northwest 34,000  Level FlightAware
05:39PM 38.7840 -93.7480 323° Northwest 34,000  Level FlightAware
05:40PM 38.8620 -93.8240 323° Northwest 34,000  Level FlightAware
05:41PM 38.9260 -93.8870 323° Northwest 34,000  Level FlightAware
05:41PM 39.0020 -93.9610 323° Northwest 34,000  Level FlightAware
05:42PM 39.0690 -94.0270 323° Northwest 34,000  Level FlightAware
05:43PM 39.1340 -94.0910 323° Northwest 34,000  Level FlightAware
05:44PM 39.2060 -94.1620 323° Northwest 34,000  Level FlightAware
05:44PM 39.2720 -94.2280 322° Northwest 34,000  Level FlightAware
05:45PM 39.3480 -94.3030 323° Northwest 34,000  Level FlightAware
05:46PM 39.4120 -94.3670 322° Northwest 34,000  Level FlightAware
05:46PM 39.4790 -94.4340 322° Northwest 34,000  Level FlightAware
05:47PM 39.5510 -94.5060 322° Northwest 34,000  Level FlightAware
05:48PM 39.6190 -94.5740 322° Northwest 34,000  Level FlightAware
05:48PM 39.6860 -94.6410 322° Northwest 34,000  Level FlightAware
05:49PM 39.7630 -94.7190 322° Northwest 34,000  Level FlightAware
05:50PM 39.8330 -94.7900 322° Northwest 34,000  Level FlightAware
05:51PM 39.9070 -94.8650 322° Northwest 34,000  Level FlightAware
05:51PM 39.9750 -94.9350 322° Northwest 34,000  Level FlightAware
05:52PM 40.0500 -95.0110 322° Northwest 34,000  Level FlightAware
05:52PM 40.0942 -95.0569 322° Northwest 464 534 34,000  Level Kansas City Center
05:53PM 40.1428 -95.1083 321° Northwest 466 536 34,000  Level Minneapolis Center
05:54PM 40.2439 -95.2133 322° Northwest 466 536 34,000  Level Minneapolis Center
05:55PM 40.3469 -95.3183 322° Northwest 466 536 34,000  Level Minneapolis Center
05:57PM 40.5375 -95.4361 335° Northwest 469 540 34,000  Level Kansas City Center
05:57PM 40.5814 -95.4425 354° North 471 542 34,000  Level Minneapolis Center
05:58PM 40.7306 -95.5017 343° North 470 541 34,000  Level Minneapolis Center
05:59PM 40.8556 -95.5533 343° North 470 541 34,000  Level Minneapolis Center
06:00PM 40.9803 -95.6053 343° North 471 542 34,000  Level Minneapolis Center
06:01PM 41.1047 -95.6556 343° North 471 542 34,000  Level Minneapolis Center
06:02PM 41.2472 -95.7142 343° North 475 547 34,000  Level Minneapolis Center
06:03PM 41.3739 -95.7644 343° North 475 547 34,000  Level Minneapolis Center
06:04PM 41.4839 -95.8586 327° Northwest 480 552 34,000  Level Minneapolis Center
06:05PM 41.5531 -96.0086 302° West 477 549 34,000  Level Minneapolis Center
06:06PM 41.6208 -96.1600 301° West 475 547 34,000  Level Minneapolis Center
06:07PM 41.6881 -96.3106 301° West 474 545 34,000  Level Minneapolis Center
06:08PM 41.7700 -96.4947 301° West 481 554 34,000  Level Minneapolis Center
06:09PM 41.8383 -96.6469 301° West 479 551 34,000  Level Minneapolis Center
06:10PM 41.9056 -96.8019 300° West 481 554 34,000  Level Minneapolis Center
06:12PM 41.9736 -96.9553 301° West 480 552 34,000  Level Minneapolis Center
06:13PM 42.0536 -97.1400 300° West 478 550 34,000  Level Minneapolis Center
06:14PM 42.1211 -97.2939 301° West 477 549 34,000  Level Minneapolis Center
06:15PM 42.1889 -97.4506 300° West 479 551 34,000  Level Minneapolis Center
06:17PM 42.3328 -97.7906 300° West 474 545 34,000  Level Denver Center
06:18PM 42.3992 -97.9439 300° West 473 544 34,000  Level Minneapolis Center
06:19PM 42.4628 -98.0939 300° West 468 539 34,000  Level Minneapolis Center
06:20PM 42.5253 -98.2425 300° West 459 528 34,000  Level Minneapolis Center
06:22PM 42.6486 -98.5381 300° West 453 521 34,000  Level Minneapolis Center
06:23PM 42.7203 -98.7128 299° West 445 512 34,000  Level Minneapolis Center
06:24PM 42.7814 -98.8594 300° West 445 512 34,000  Level Minneapolis Center
06:25PM 42.8403 -99.0044 299° West 441 507 34,000  Level Minneapolis Center
06:26PM 42.8986 -99.1506 299° West 440 506 34,000  Level Minneapolis Center
06:27PM 42.9478 -99.2686 300° West 446 513 34,000  Level Minneapolis Center
06:28PM 43.0064 -99.4150 299° West 442 509 34,000  Level Minneapolis Center
06:29PM 43.0656 -99.5606 299° West 438 504 34,000  Level Minneapolis Center
06:30PM 43.1308 -99.7258 298° West 440 506 34,000  Level Minneapolis Center
06:31PM 43.1889 -99.8717 299° West 437 503 34,000  Level Minneapolis Center
06:32PM 43.2467 -100.0186 298° West 437 503 34,000  Level Minneapolis Center
06:33PM 43.2922 -100.1381 298° West 439 505 34,000  Level Minneapolis Center
06:35PM 43.3643 -100.3548 295° West  Level FlightAware Approximate
06:35PM 43.4192 -100.4586 295° West 435 501 34,000  Level Denver Center
06:37PM 43.5322 -100.7558 298° West 436 502 34,000  Level Minneapolis Center
06:38PM 43.5886 -100.9022 298° West 434 499 34,000  Level Minneapolis Center
06:39PM 43.6453 -101.0506 298° West 435 501 34,000  Level Minneapolis Center
06:40PM 43.7019 -101.1997 298° West 436 502 34,000  Level Minneapolis Center
06:41PM 43.7578 -101.3492 297° West 436 502 34,000  Level Minneapolis Center
06:42PM 43.8144 -101.4994 298° West 439 505 34,000  Level Minneapolis Center
06:43PM 43.8819 -101.6803 297° West 441 507 34,000  Level Denver Center
06:44PM 43.9364 -101.8311 297° West 437 503 34,000  Level Denver Center
06:45PM 43.9919 -101.9831 297° West 437 503 34,000  Level Denver Center
06:46PM 44.0639 -102.1653 299° West 445 512 34,000  Level Denver Center
06:47PM 44.1264 -102.3161 300° West 447 514 34,000  Level Denver Center
06:49PM 44.1872 -102.4692 299° West 450 518 34,000  Level Denver Center
06:50PM 44.2594 -102.6503 299° West 446 513 34,000  Level Denver Center
06:51PM 44.3194 -102.8025 299° West 447 514 34,000  Level Denver Center
06:52PM 44.3797 -102.9569 299° West 451 519 34,000  Level Denver Center
06:53PM 44.4400 -103.1114 299° West 452 520 34,000  Level Denver Center
06:54PM 44.5100 -103.2964 298° West 449 517 34,000  Level Denver Center
06:55PM 44.5703 -103.4514 299° West 453 521 34,000  Level Denver Center
06:56PM 44.6325 -103.6139 298° West 451 519 34,000  Level Denver Center
06:57PM 44.6883 -103.7617 298° West 448 516 34,000  Level Denver Center
06:58PM 44.7353 -103.8861 298° West 451 519 34,000  Level Denver Center
06:59PM 44.8094 -104.0850 298° West 451 519 34,000  Level Denver Center
07:00PM 44.8664 -104.2344 298° West 453 521 34,000  Level Denver Center
07:00PM 44.8939 -104.3086 298° West 453 521 34,000  Level Salt Lake Center
07:01PM 44.9511 -104.4589 298° West 454 522 34,000  Level Salt Lake Center
07:02PM 44.9867 -104.5625 296° West 455 524 34,000  Level Denver Center
07:03PM 45.0436 -104.7192 297° West 455 524 34,000  Level Denver Center
07:03PM 45.0725 -104.7947 298° West 457 526 34,000  Level Salt Lake Center
07:04PM 45.1092 -104.8964 297° West 455 524 34,000  Level Denver Center
07:04PM 45.1275 -104.9456 298° West 453 521 34,000  Level Salt Lake Center
07:05PM 45.1825 -105.0992 297° West 456 525 34,000  Level Salt Lake Center
07:07PM 45.2464 -105.2775 297° West 456 525 34,000  Level Salt Lake Center
07:08PM 45.3019 -105.4314 297° West 458 527 34,000  Level Salt Lake Center
07:09PM 45.3653 -105.6106 297° West 457 526 34,000  Level Salt Lake Center
07:10PM 45.4197 -105.7658 297° West 458 527 34,000  Level Salt Lake Center
07:11PM 45.4753 -105.9231 297° West 465 535 34,000  Level Salt Lake Center
07:12PM 45.5314 -106.1125 293° West 465 535 34,000  Level Salt Lake Center
07:13PM 45.5700 -106.2817 288° West 468 539 34,000  Level Salt Lake Center
07:14PM 45.6167 -106.4775 289° West 468 539 34,000  Level Salt Lake Center
07:15PM 45.6536 -106.6428 288° West 462 532 34,000  Level Salt Lake Center
07:16PM 45.7003 -106.8408 289° West 465 535 34,000  Level Salt Lake Center
07:17PM 45.7422 -107.0125 289° West 473 544 34,000  Level Salt Lake Center
07:18PM 45.7817 -107.1847 288° West 476 548 34,000  Level Salt Lake Center
07:19PM 45.8281 -107.3847 288° West 477 549 34,000  Level Salt Lake Center
07:20PM 45.8672 -107.5539 288° West 472 543 34,000  Level Salt Lake Center
07:21PM 45.9119 -107.7522 288° West 470 541 34,000  Level Salt Lake Center
07:22PM 45.9497 -107.9214 288° West 466 536 34,000  Level Salt Lake Center
07:23PM 45.9944 -108.1214 288° West 470 541 34,000  Level Salt Lake Center
07:24PM 46.0325 -108.2947 288° West 475 547 34,000  Level Salt Lake Center
07:25PM 46.0703 -108.4678 288° West 475 547 34,000  Level Salt Lake Center
07:26PM 46.1144 -108.6700 288° West 474 545 34,000  Level Salt Lake Center
07:27PM 46.1514 -108.8450 287° West 477 549 34,000  Level Salt Lake Center
07:28PM 46.1961 -109.0522 287° West 485 558 34,000  Level Salt Lake Center
07:29PM 46.2342 -109.2314 287° West 488 562 34,000  Level Salt Lake Center
07:30PM 46.2717 -109.4089 287° West 485 558 34,000  Level Salt Lake Center
07:31PM 46.3161 -109.6222 287° West 494 568 34,000  Level Salt Lake Center
07:32PM 46.3533 -109.8053 286° West 495 570 34,000  Level Salt Lake Center
07:33PM 46.3961 -110.0222 286° West 502 578 34,000  Level Salt Lake Center
07:34PM 46.4331 -110.2081 286° West 503 579 34,000  Level Salt Lake Center
07:35PM 46.4758 -110.4264 286° West 504 580 34,000  Level Salt Lake Center
07:36PM 46.5072 -110.5867 286° West 504 580 34,000 -60 Level Salt Lake Center
07:37PM 46.5528 -110.8219 286° West 505 581 33,900  Descending Salt Lake Center
07:38PM 46.5919 -111.0239 286° West 505 581 34,000  Climbing Salt Lake Center
07:39PM 46.6289 -111.2183 286° West 509 586 34,000  Level Salt Lake Center
07:40PM 46.6672 -111.4178 286° West 511 588 34,000  Level Salt Lake Center
07:41PM 46.7039 -111.6181 285° West 510 587 34,000  Level Salt Lake Center
07:42PM 46.7422 -111.8222 285° West 515 593 34,000  Level Salt Lake Center
07:43PM 46.7781 -112.0253 285° West 516 594 34,000  Level Salt Lake Center
07:44PM 46.8147 -112.2281 285° West 517 595 34,000  Level Salt Lake Center
07:45PM 46.8589 -112.4694 285° West 514 592 34,000  Level Salt Lake Center
07:47PM 46.8942 -112.6728 284° West 515 593 34,000  Level Salt Lake Center
07:48PM 46.9289 -112.8764 284° West 516 594 34,000  Level Salt Lake Center
07:49PM 46.9667 -113.0858 285° West 522 601 34,000  Level Salt Lake Center
07:50PM 47.0006 -113.2886 284° West 513 590 34,000  Level Salt Lake Center
07:51PM 47.0344 -113.4928 284° West 516 594 34,000  Level Salt Lake Center
07:52PM 47.0683 -113.6961 284° West 512 589 34,000  Level Salt Lake Center
07:53PM 47.1019 -113.9011 284° West 515 593 34,000 -60 Level Salt Lake Center
07:54PM 47.1347 -114.1058 283° West 515 593 33,900  Descending Salt Lake Center
07:55PM 47.1742 -114.3528 283° West 517 595 34,000  Climbing Salt Lake Center
07:56PM 47.2061 -114.5558 283° West 511 588 34,000 -120 Level Salt Lake Center
07:56PM 47.2247 -114.6786 283° West 510 587 33,900  Descending Seattle Center
07:57PM 47.2575 -114.8839 283° West 512 589 34,000  Climbing Seattle Center
07:58PM 47.2825 -115.0469 283° West 512 589 34,000  Level Seattle Center
07:59PM 47.3194 -115.2928 283° West 512 589 34,000 -1,020 Level Seattle Center
08:00PM 47.3489 -115.4953 282° West 507 583 32,000 -2,220 Descending Seattle Center
08:01PM 47.3786 -115.6917 283° West 495 570 29,600 -2,220 Descending Seattle Center
08:02PM 47.4028 -115.8625 282° West 478 550 27,500 -2,220 Descending Seattle Center
08:03PM 47.4283 -116.0483 282° West 467 537 25,200 -2,340 Descending Seattle Center
08:04PM 47.4539 -116.2275 282° West 453 521 22,800 -2,340 Descending Seattle Center
08:05PM 47.4789 -116.4047 282° West 444 511 20,500 -2,520 Descending Seattle Center
08:06PM 47.5078 -116.6103 282° West 430 495 17,700 -3,240 Descending Seattle Center
08:07PM 47.5200 -116.7828 276° West 410 472 14,000 -3,540 Descending Seattle Center
08:08PM 47.5317 -116.9431 276° West 392 451 10,600 -1,800 Descending Seattle Center
08:10PM 47.5378 -117.0767 274° West 316 364 10,400 -1,140 Descending Seattle Center
08:11PM 47.5444 -117.1972 275° West 291 335 8,400 -1,980 Descending Seattle Center
08:12PM 47.5483 -117.2983 273° West 289 333 6,500 -1,320 Descending Seattle Center
08:13PM 47.5550 -117.4100 275° West 275 316 5,800 -480 Descending Seattle Center
08:14PM 47.5111 -117.5128 238° Southwest 261 300 5,600 -120 Descending Seattle Center
08:15PM 47.4567 -117.5833 221° Southwest 262 302 5,600  Level Seattle Center
08:16PM 47.4031 -117.6556 222° Southwest 262 302 5,600 -300 Level Seattle Center
08:17PM 47.3647 -117.7389 236° Southwest 259 298 5,000 -300 Descending Seattle Center
08:18PM 47.4050 -117.8047 312° West 221 254 5,000  Level Seattle Center
08:19PM 47.4567 -117.7786 19° North 199 229 5,000  Level Seattle Center
08:20PM 47.4967 -117.7211 44° Northeast 201 231 5,000 -240 Level Seattle Center
08:21PM 47.5336 -117.6650 46° Northeast 191 220 4,600 -600 Descending Seattle Center
08:22PM 47.5619 -117.6225 45° Northeast 148 170 3,800 -780 Descending Seattle Center
08:23PM 47.5875 -117.5844 45° Northeast 132 152 3,100 -780 Descending Seattle Center
08:24PM 47.6133 -117.5464 45° Northeast 131 151 2,300 -360 Descending Seattle Center
08:25PM 47.6247 -117.5278 48° Northeast 86 99 2,400 60 Climbing Seattle Center